Time;durP1;ratioP1;P1;durP2;ratioP2;P2;SDS_P1;SDS_P2;PMS_P1;PMS_P2;Temp;Humidity;BMP_temperature;BMP_pressure;BME280_temperature;BME280_humidity;BME280_pressure;Samples;Min_cycle;Max_cycle;Signal;HPM_P1;HPM_P2
2020/12/11 00:00:57;;;;;;;51.88;16.25;;;-0.20;99.90;;;;;;5016921;28;20036;-46
2020/12/11 00:03:23;;;;;;;43.33;13.80;;;-0.20;99.90;;;;;;5019412;28;20326;-44
2020/12/11 00:05:48;;;;;;;55.33;18.08;;;-0.20;99.90;;;;;;5017649;28;20038;-47
2020/12/11 00:08:14;;;;;;;71.68;23.50;;;-0.20;99.90;;;;;;5019384;28;20038;-48
2020/12/11 00:10:39;;;;;;;64.10;22.20;;;-0.20;99.90;;;;;;5018889;28;20029;-48
2020/12/11 00:13:05;;;;;;;84.20;24.33;;;-0.20;99.90;;;;;;5019587;28;20045;-47
2020/12/11 00:15:30;;;;;;;67.38;21.73;;;-0.20;99.90;;;;;;5013861;28;20105;-47
2020/12/11 00:17:55;;;;;;;71.25;26.45;;;-0.20;99.90;;;;;;5016800;28;20104;-44
2020/12/11 00:20:21;;;;;;;49.47;17.23;;;-0.20;99.90;;;;;;5016519;28;20507;-47
2020/12/11 00:22:46;;;;;;;43.88;15.45;;;-0.30;99.90;;;;;;5019294;28;20128;-46
2020/12/11 00:25:12;;;;;;;56.85;20.40;;;-0.30;99.90;;;;;;5015964;28;20049;-47
2020/12/11 00:27:37;;;;;;;49.40;17.83;;;-0.30;99.90;;;;;;5018009;28;20037;-48
2020/12/11 00:30:04;;;;;;;65.75;19.35;;;-0.30;99.90;;;;;;5020541;28;20470;-47
2020/12/11 00:32:31;;;;;;;55.53;20.15;;;-0.30;99.90;;;;;;5021158;28;20068;-46
2020/12/11 00:34:56;;;;;;;60.70;21.05;;;-0.30;99.90;;;;;;5028560;28;20176;-48
2020/12/11 00:37:22;;;;;;;46.30;19.48;;;-0.30;99.90;;;;;;5022845;28;20529;-49
2020/12/11 00:39:48;;;;;;;44.05;15.63;;;-0.30;99.90;;;;;;5024348;28;20358;-49
2020/12/11 00:42:19;;;;;;;61.33;20.48;;;-0.30;99.90;;;;;;5030113;28;20026;-49
2020/12/11 00:44:45;;;;;;;60.40;19.35;;;-0.30;99.90;;;;;;5016738;28;20353;-47
2020/12/11 00:47:10;;;;;;;58.22;21.58;;;-0.40;99.90;;;;;;5021331;28;20544;-49
2020/12/11 00:49:37;;;;;;;37.97;14.65;;;-0.40;99.90;;;;;;5020114;28;20393;-46
2020/12/11 00:52:02;;;;;;;47.33;14.23;;;-0.40;99.90;;;;;;5022114;28;20034;-50
2020/12/11 00:54:28;;;;;;;63.50;23.80;;;-0.40;99.90;;;;;;5018139;28;20029;-47
2020/12/11 00:56:53;;;;;;;46.40;16.38;;;-0.30;99.90;;;;;;5016658;28;20034;-46
2020/12/11 00:59:19;;;;;;;54.88;16.85;;;-0.40;99.90;;;;;;5014834;28;20034;-48
2020/12/11 01:01:44;;;;;;;51.33;18.25;;;-0.40;99.90;;;;;;5028541;28;20566;-47
2020/12/11 01:04:10;;;;;;;51.88;15.77;;;-0.30;99.90;;;;;;5021457;28;20072;-47
2020/12/11 01:06:35;;;;;;;74.40;24.17;;;-0.40;99.90;;;;;;5015738;28;20026;-47
2020/12/11 01:09:01;;;;;;;48.95;16.50;;;-0.30;99.90;;;;;;5024055;28;20052;-46
2020/12/11 01:11:26;;;;;;;70.50;24.63;;;-0.30;99.90;;;;;;5019569;28;20063;-48
2020/12/11 01:13:52;;;;;;;50.42;19.15;;;-0.30;99.90;;;;;;5020278;28;20102;-46
2020/12/11 01:16:17;;;;;;;64.55;21.30;;;-0.30;99.90;;;;;;5022224;28;20030;-49
2020/12/11 01:18:43;;;;;;;60.67;21.02;;;-0.30;99.90;;;;;;5013414;28;20114;-45
2020/12/11 01:21:08;;;;;;;59.20;19.70;;;-0.30;99.90;;;;;;5024751;28;20033;-48
2020/12/11 01:23:34;;;;;;;64.43;25.80;;;-0.30;99.90;;;;;;5019482;28;20050;-49
2020/12/11 01:25:59;;;;;;;51.47;18.35;;;-0.30;99.90;;;;;;5022363;28;20068;-49
2020/12/11 01:28:25;;;;;;;60.80;20.13;;;-0.30;99.90;;;;;;5017096;28;20064;-47
2020/12/11 01:30:50;;;;;;;45.83;17.70;;;-0.30;99.90;;;;;;5018288;28;20036;-49
2020/12/11 01:33:16;;;;;;;59.15;18.73;;;-0.40;99.90;;;;;;5019064;28;20048;-46
2020/12/11 01:35:43;;;;;;;49.10;17.05;;;-0.40;99.90;;;;;;5018463;28;20100;-52
2020/12/11 01:38:08;;;;;;;46.17;15.50;;;-0.40;99.90;;;;;;5017210;28;20377;-49
2020/12/11 01:40:35;;;;;;;58.15;18.15;;;-0.40;99.90;;;;;;5016343;28;20026;-48
2020/12/11 01:43:00;;;;;;;61.00;22.10;;;-0.40;99.90;;;;;;5015723;28;20436;-50
2020/12/11 01:45:26;;;;;;;65.75;22.48;;;-0.30;99.90;;;;;;5016599;28;20108;-51
2020/12/11 01:47:52;;;;;;;47.45;16.98;;;-0.30;99.90;;;;;;5016589;28;20141;-51
2020/12/11 01:50:20;;;;;;;46.30;17.20;;;-0.40;99.90;;;;;;5015489;28;20038;-46
2020/12/11 01:52:47;;;;;;;50.65;16.60;;;-0.40;99.90;;;;;;5015832;28;20117;-49
2020/12/11 01:55:14;;;;;;;66.00;23.27;;;-0.40;99.90;;;;;;5016531;28;20476;-46
2020/12/11 01:57:58;;;;;;;68.50;22.08;;;-0.40;99.90;;;;;;5015840;28;20033;-51
2020/12/11 02:00:24;;;;;;;52.95;17.83;;;-0.40;99.90;;;;;;5017123;28;20077;-48
2020/12/11 02:03:06;;;;;;;71.25;22.58;;;-0.40;99.90;;;;;;5020396;28;20105;-47
2020/12/11 02:05:32;;;;;;;63.90;19.95;;;-0.40;99.90;;;;;;5023794;28;20032;-47
2020/12/11 02:07:59;;;;;;;61.35;21.58;;;-0.50;99.90;;;;;;5028126;28;20034;-46
2020/12/11 02:10:25;;;;;;;51.17;16.38;;;-0.50;99.90;;;;;;5024585;28;20112;-50
2020/12/11 02:12:51;;;;;;;50.10;18.38;;;-0.50;99.90;;;;;;5025533;28;20473;-45
2020/12/11 02:15:17;;;;;;;52.08;18.30;;;-0.50;99.90;;;;;;5019429;28;20108;-47
2020/12/11 02:17:42;;;;;;;68.10;22.23;;;-0.40;99.90;;;;;;5017044;28;20116;-49
2020/12/11 02:20:08;;;;;;;61.30;19.67;;;-0.40;99.90;;;;;;5019126;28;20034;-48
2020/12/11 02:22:33;;;;;;;67.38;22.00;;;-0.40;99.90;;;;;;5028415;28;20396;-49
2020/12/11 02:24:59;;;;;;;54.25;18.33;;;-0.50;99.90;;;;;;5021679;28;20033;-46
2020/12/11 02:27:24;;;;;;;53.70;18.50;;;-0.40;99.90;;;;;;5021659;28;20401;-47
2020/12/11 02:29:50;;;;;;;61.88;17.92;;;-0.50;99.90;;;;;;5020464;28;20028;-48
2020/12/11 02:32:15;;;;;;;55.40;16.83;;;-0.50;99.90;;;;;;5023334;28;20029;-49
2020/12/11 02:34:41;;;;;;;57.67;19.52;;;-0.40;99.90;;;;;;5024997;28;20018;-48
2020/12/11 02:37:08;;;;;;;73.93;22.65;;;-0.40;99.90;;;;;;5018788;28;20125;-47
2020/12/11 02:39:34;;;;;;;62.13;22.58;;;-0.40;99.90;;;;;;5027481;28;20025;-49
2020/12/11 02:42:00;;;;;;;65.90;22.55;;;-0.40;99.90;;;;;;5023244;28;20088;-48
2020/12/11 02:44:25;;;;;;;62.88;21.48;;;-0.40;99.90;;;;;;5021077;28;20034;-46
2020/12/11 02:46:51;;;;;;;87.07;27.17;;;-0.30;99.90;;;;;;5023587;28;20388;-46
2020/12/11 02:49:16;;;;;;;63.13;20.13;;;-0.30;99.90;;;;;;5013943;28;20029;-49
2020/12/11 02:51:42;;;;;;;86.72;24.65;;;-0.30;99.90;;;;;;5023743;28;20056;-46
2020/12/11 02:54:07;;;;;;;71.45;21.58;;;-0.30;99.90;;;;;;5022247;28;20105;-48
2020/12/11 02:56:33;;;;;;;60.22;18.52;;;-0.30;99.90;;;;;;5020063;28;20045;-46
2020/12/11 02:58:58;;;;;;;82.50;25.35;;;-0.30;99.90;;;;;;5022464;28;20057;-49
2020/12/11 03:01:27;;;;;;;60.50;19.88;;;-0.30;99.90;;;;;;5018649;28;20026;-49
2020/12/11 03:03:55;;;;;;;73.25;22.33;;;-0.30;99.90;;;;;;5022790;28;20049;-46
2020/12/11 03:06:26;;;;;;;63.72;20.38;;;-0.40;99.90;;;;;;5019808;28;20068;-50
2020/12/11 03:08:52;;;;;;;92.32;29.48;;;-0.30;99.90;;;;;;5018848;28;20219;-51
2020/12/11 03:11:17;;;;;;;86.53;28.13;;;-0.30;99.90;;;;;;5018718;28;20069;-45
2020/12/11 03:13:43;;;;;;;106.07;31.17;;;-0.30;99.90;;;;;;5017433;28;20061;-46
2020/12/11 03:16:08;;;;;;;78.22;25.25;;;-0.40;99.90;;;;;;5017013;28;20038;-51
2020/12/11 03:18:34;;;;;;;68.22;21.52;;;-0.40;99.90;;;;;;5018045;28;20091;-46
2020/12/11 03:20:59;;;;;;;80.40;24.55;;;-0.40;99.90;;;;;;5018142;28;20037;-48
2020/12/11 03:23:25;;;;;;;79.57;24.60;;;-0.40;99.90;;;;;;5020905;28;20056;-49
2020/12/11 03:25:50;;;;;;;87.30;26.95;;;-0.50;99.90;;;;;;5018358;28;20136;-48
2020/12/11 03:28:16;;;;;;;91.70;27.50;;;-0.50;99.90;;;;;;5031369;28;20480;-48
2020/12/11 03:30:41;;;;;;;76.30;22.48;;;-0.50;99.90;;;;;;5020055;28;20048;-50
2020/12/11 03:33:07;;;;;;;90.70;26.05;;;-0.60;99.90;;;;;;5021186;28;20041;-45
2020/12/11 03:35:33;;;;;;;89.10;27.95;;;-0.50;99.90;;;;;;5025369;28;20033;-46
2020/12/11 03:37:58;;;;;;;95.63;27.48;;;-0.50;99.90;;;;;;5022405;28;20028;-47
2020/12/11 03:40:24;;;;;;;74.15;22.05;;;-0.50;99.90;;;;;;5028774;28;20025;-48
2020/12/11 03:42:49;;;;;;;61.05;18.05;;;-0.50;99.90;;;;;;5020067;28;20059;-49
2020/12/11 03:45:14;;;;;;;80.32;22.48;;;-0.60;99.90;;;;;;5018994;28;20049;-48
2020/12/11 03:47:40;;;;;;;78.53;24.10;;;-0.60;99.90;;;;;;5028061;28;20083;-46
2020/12/11 03:50:06;;;;;;;82.00;24.65;;;-0.60;99.90;;;;;;5016035;28;20029;-48
2020/12/11 03:52:32;;;;;;;84.45;24.20;;;-0.60;99.90;;;;;;5015545;28;20045;-46
2020/12/11 03:54:57;;;;;;;81.70;23.23;;;-0.50;99.90;;;;;;5015486;28;20072;-48
2020/12/11 03:57:23;;;;;;;63.95;19.60;;;-0.50;99.90;;;;;;5024489;28;20022;-46
2020/12/11 03:59:49;;;;;;;71.32;20.60;;;-0.50;99.90;;;;;;5028160;28;20034;-47
2020/12/11 04:02:15;;;;;;;58.53;17.50;;;-0.50;99.90;;;;;;5022947;28;20044;-49
2020/12/11 04:04:42;;;;;;;83.68;25.20;;;-0.50;99.90;;;;;;5024641;28;20033;-50
2020/12/11 04:07:07;;;;;;;63.33;20.50;;;-0.50;99.90;;;;;;5026064;28;20393;-48
2020/12/11 04:09:33;;;;;;;76.55;25.58;;;-0.50;99.90;;;;;;5023593;28;20038;-52
2020/12/11 04:11:58;;;;;;;68.10;22.20;;;-0.50;99.90;;;;;;5022052;28;20030;-49
2020/12/11 04:14:24;;;;;;;50.50;16.25;;;-0.60;99.90;;;;;;5020222;28;20497;-49
2020/12/11 04:16:49;;;;;;;68.20;21.63;;;-0.60;99.90;;;;;;5022125;28;20075;-52
2020/12/11 04:19:15;;;;;;;92.63;26.98;;;-0.60;99.90;;;;;;5020254;28;20084;-49
2020/12/11 04:21:49;;;;;;;60.83;20.23;;;-0.60;99.90;;;;;;5020019;28;20120;-47
2020/12/11 04:24:15;;;;;;;56.35;17.73;;;-0.70;99.90;;;;;;5017309;28;20053;-46
2020/12/11 04:26:40;;;;;;;52.15;17.95;;;-0.70;99.90;;;;;;5020905;28;20029;-47
2020/12/11 04:29:06;;;;;;;82.25;23.42;;;-0.70;99.90;;;;;;5016846;28;20026;-50
2020/12/11 04:31:31;;;;;;;47.35;15.30;;;-0.70;99.90;;;;;;5020636;28;20144;-48
2020/12/11 04:33:57;;;;;;;64.20;19.35;;;-0.70;99.90;;;;;;5019712;28;20014;-45
2020/12/11 04:36:22;;;;;;;59.00;19.02;;;-0.60;99.90;;;;;;5019312;28;20038;-48
2020/12/11 04:38:48;;;;;;;61.15;17.10;;;-0.70;99.90;;;;;;5016697;28;20033;-44
2020/12/11 04:41:15;;;;;;;59.53;18.40;;;-0.70;99.90;;;;;;5019520;28;20122;-49
2020/12/11 04:43:41;;;;;;;69.10;21.13;;;-0.60;99.90;;;;;;5017443;28;20029;-48
2020/12/11 04:46:07;;;;;;;59.30;20.75;;;-0.60;99.90;;;;;;5018213;28;20087;-46
2020/12/11 04:48:36;;;;;;;62.72;19.05;;;-0.60;99.90;;;;;;5021968;28;20044;-44
2020/12/11 04:51:02;;;;;;;64.65;20.77;;;-0.60;99.90;;;;;;5016872;28;20021;-47
2020/12/11 04:53:34;;;;;;;62.15;20.50;;;-0.60;99.90;;;;;;5016048;28;20123;-45
2020/12/11 04:56:04;;;;;;;75.10;20.15;;;-0.70;99.90;;;;;;5019519;28;20408;-46
2020/12/11 04:58:31;;;;;;;57.15;15.02;;;-0.70;99.90;;;;;;5016192;28;20064;-51
2020/12/11 05:01:06;;;;;;;69.63;22.15;;;-0.70;99.90;;;;;;5023992;28;20045;-51
2020/12/11 05:03:35;;;;;;;78.80;23.35;;;-0.70;99.90;;;;;;5015931;28;20120;-49
2020/12/11 05:06:01;;;;;;;75.97;19.92;;;-0.70;99.90;;;;;;5024007;28;20030;-46
2020/12/11 05:08:27;;;;;;;60.45;17.67;;;-0.70;99.90;;;;;;5026251;28;20052;-47
2020/12/11 05:10:53;;;;;;;65.90;20.27;;;-0.70;99.90;;;;;;5015902;28;20500;-49
2020/12/11 05:13:23;;;;;;;89.20;24.92;;;-0.70;99.90;;;;;;5021370;28;20037;-50
2020/12/11 05:16:09;;;;;;;77.38;23.05;;;-0.70;99.90;;;;;;5024923;28;20033;-47
2020/12/11 05:18:36;;;;;;;59.17;17.83;;;-0.70;99.90;;;;;;5017103;28;20024;-46
2020/12/11 05:21:19;;;;;;;91.40;28.02;;;-0.70;99.90;;;;;;5017803;28;20045;-47
2020/12/11 05:23:55;;;;;;;74.03;21.88;;;-0.70;99.90;;;;;;5021737;28;20056;-46
2020/12/11 05:26:21;;;;;;;55.15;18.63;;;-0.70;99.90;;;;;;5016609;28;20084;-50
2020/12/11 05:28:47;;;;;;;60.90;19.27;;;-0.70;99.90;;;;;;5014142;28;20041;-46
2020/12/11 05:31:13;;;;;;;74.72;22.90;;;-0.70;99.90;;;;;;5025221;28;20041;-46
2020/12/11 05:33:59;;;;;;;66.90;19.58;;;-0.70;99.90;;;;;;5020630;28;20116;-51
2020/12/11 05:36:24;;;;;;;73.95;21.17;;;-0.70;99.90;;;;;;5017631;28;20044;-48
2020/12/11 05:38:50;;;;;;;74.80;23.92;;;-0.60;99.90;;;;;;5018622;28;20041;-44
2020/12/11 05:41:37;;;;;;;76.70;23.48;;;-0.70;99.90;;;;;;5019177;28;20060;-52
2020/12/11 05:44:21;;;;;;;81.15;26.20;;;-0.60;99.90;;;;;;5017726;28;20056;-48
2020/12/11 05:46:46;;;;;;;75.80;22.40;;;-0.60;99.90;;;;;;5019365;28;20144;-45
2020/12/11 05:49:30;;;;;;;76.47;21.85;;;-0.60;99.90;;;;;;5018567;28;20561;-44
2020/12/11 05:51:59;;;;;;;71.78;22.83;;;-0.60;99.90;;;;;;5016453;28;20084;-49
2020/12/11 05:54:25;;;;;;;76.68;22.90;;;-0.70;99.90;;;;;;5018953;28;20057;-49
2020/12/11 05:56:52;;;;;;;72.80;20.20;;;-0.70;99.90;;;;;;5019183;28;20112;-48
2020/12/11 05:59:20;;;;;;;62.78;20.15;;;-0.70;99.90;;;;;;5012977;28;20026;-48
2020/12/11 06:01:49;;;;;;;79.35;23.05;;;-0.60;99.90;;;;;;5017038;28;20026;-46
2020/12/11 06:04:17;;;;;;;67.03;19.98;;;-0.60;99.90;;;;;;5013505;28;20036;-49
2020/12/11 06:06:45;;;;;;;66.60;19.05;;;-0.60;99.90;;;;;;5018828;28;20113;-46
2020/12/11 06:09:13;;;;;;;63.85;19.42;;;-0.60;99.90;;;;;;5016533;28;20034;-46
2020/12/11 06:11:46;;;;;;;58.67;18.80;;;-0.60;99.90;;;;;;5018504;28;20049;-48
2020/12/11 06:14:22;;;;;;;77.38;23.02;;;-0.60;99.90;;;;;;5012899;28;20065;-47
2020/12/11 06:16:51;;;;;;;81.50;22.73;;;-0.60;99.90;;;;;;5016651;28;20026;-47
2020/12/11 06:19:19;;;;;;;70.95;22.17;;;-0.60;99.90;;;;;;5012788;28;20053;-48
2020/12/11 06:21:44;;;;;;;69.63;24.35;;;-0.50;99.90;;;;;;5016553;28;20025;-46
2020/12/11 06:24:29;;;;;;;73.80;22.73;;;-0.50;99.90;;;;;;5017147;28;20057;-46
2020/12/11 06:26:56;;;;;;;66.00;22.10;;;-0.50;99.90;;;;;;5014821;28;20022;-48
2020/12/11 06:29:40;;;;;;;80.60;23.63;;;-0.50;99.90;;;;;;5018795;28;20022;-46
2020/12/11 06:32:10;;;;;;;64.50;19.75;;;-0.60;99.90;;;;;;5029485;28;20068;-52
2020/12/11 06:34:36;;;;;;;65.78;21.23;;;-0.50;99.90;;;;;;5025042;28;20030;-50
2020/12/11 06:37:02;;;;;;;60.10;19.33;;;-0.60;99.90;;;;;;5022593;28;20036;-47
2020/12/11 06:39:45;;;;;;;51.13;18.55;;;-0.50;99.90;;;;;;5022920;28;20033;-48
2020/12/11 06:42:31;;;;;;;69.70;22.90;;;-0.50;99.90;;;;;;5026167;28;20520;-47
2020/12/11 06:45:23;;;;;;;56.90;19.23;;;-0.50;99.90;;;;;;5017275;28;20057;-49
2020/12/11 06:48:00;;;;;;;57.65;18.77;;;-0.60;99.90;;;;;;5016209;28;20026;-48
2020/12/11 06:50:31;;;;;;;90.60;25.88;;;-0.50;99.90;;;;;;5025975;28;20033;-47
2020/12/11 06:52:57;;;;;;;72.07;21.70;;;-0.50;99.90;;;;;;5014630;28;20040;-49
2020/12/11 06:55:52;;;;;;;76.78;20.48;;;-0.50;99.90;;;;;;5015450;28;20537;-51
2020/12/11 06:58:18;;;;;;;47.55;17.23;;;-0.50;99.90;;;;;;5028264;28;20033;-50
2020/12/11 07:00:54;;;;;;;57.70;19.40;;;-0.50;99.90;;;;;;5022860;28;20049;-46
2020/12/11 07:03:25;;;;;;;62.00;19.48;;;-0.50;99.90;;;;;;5017377;28;20034;-44
2020/12/11 07:06:05;;;;;;;76.10;23.52;;;-0.40;99.90;;;;;;5020179;28;20045;-46
2020/12/11 07:08:31;;;;;;;57.50;19.33;;;-0.40;99.90;;;;;;5019410;28;20053;-47
2020/12/11 07:11:07;;;;;;;79.30;24.80;;;-0.40;99.90;;;;;;5014186;28;20030;-51
2020/12/11 07:13:35;;;;;;;;;;;-0.40;99.90;;;;;;5023799;28;20030;-50
2020/12/11 07:16:02;;;;;;;68.45;20.60;;;-0.40;99.90;;;;;;5022040;28;19917;-45
2020/12/11 07:18:28;;;;;;;59.45;19.85;;;-0.40;99.90;;;;;;5023985;28;20485;-45
2020/12/11 07:20:56;;;;;;;71.15;21.98;;;-0.50;99.90;;;;;;5024293;28;20227;-47
2020/12/11 07:23:23;;;;;;;54.60;18.20;;;-0.40;99.90;;;;;;5018554;28;20041;-47
2020/12/11 07:25:50;;;;;;;59.65;19.20;;;-0.40;99.90;;;;;;5020185;28;20498;-50
2020/12/11 07:28:16;;;;;;;58.08;20.38;;;-0.40;99.90;;;;;;5028090;28;20032;-48
2020/12/11 07:30:43;;;;;;;60.17;20.23;;;-0.40;99.90;;;;;;5021926;28;20026;-53
2020/12/11 07:33:10;;;;;;;66.50;22.55;;;-0.30;99.90;;;;;;5017963;28;20173;-47
2020/12/11 07:35:37;;;;;;;69.00;23.05;;;-0.30;99.90;;;;;;5018950;28;20030;-46
2020/12/11 07:38:03;;;;;;;55.58;19.73;;;-0.30;99.90;;;;;;5020929;28;20030;-46
2020/12/11 07:40:29;;;;;;;49.55;17.02;;;-0.30;99.90;;;;;;5020144;28;20022;-46
2020/12/11 07:42:55;;;;;;;77.53;22.17;;;-0.30;99.90;;;;;;5020065;28;20026;-48
2020/12/11 07:45:35;;;;;;;64.00;22.00;;;-0.30;99.90;;;;;;5022902;28;20079;-48
2020/12/11 07:48:01;;;;;;;71.85;23.35;;;-0.30;99.90;;;;;;5018291;28;20021;-47
2020/12/11 07:50:28;;;;;;;56.33;21.17;;;-0.30;99.90;;;;;;5016945;28;20036;-46
2020/12/11 07:52:56;;;;;;;64.63;20.58;;;-0.20;99.90;;;;;;5018687;28;20021;-47
2020/12/11 07:55:22;;;;;;;72.55;25.92;;;-0.20;99.90;;;;;;5016828;28;20064;-46
2020/12/11 07:57:56;;;;;;;65.95;21.65;;;-0.20;99.90;;;;;;5017901;28;20026;-43
2020/12/11 08:00:22;;;;;;;78.03;26.90;;;-0.20;99.90;;;;;;5023712;28;20025;-51
2020/12/11 08:02:52;;;;;;;65.47;22.77;;;-0.20;99.90;;;;;;5026877;28;20890;-50
2020/12/11 08:05:19;;;;;;;81.68;26.35;;;-0.20;99.90;;;;;;5019199;28;20120;-46
2020/12/11 08:07:48;;;;;;;66.43;24.88;;;-0.20;99.90;;;;;;5021462;28;20037;-50
2020/12/11 08:10:16;;;;;;;70.97;25.40;;;-0.20;99.90;;;;;;5033556;28;20093;-47
2020/12/11 08:12:43;;;;;;;72.93;22.92;;;-0.20;99.90;;;;;;5032231;28;20438;-50
2020/12/11 08:15:10;;;;;;;70.82;24.75;;;-0.20;99.90;;;;;;5029436;28;20030;-52
2020/12/11 08:17:37;;;;;;;54.60;19.27;;;-0.20;99.90;;;;;;5030311;28;20034;-51
2020/12/11 08:20:05;;;;;;;63.20;20.98;;;-0.20;99.90;;;;;;5021182;28;20021;-48
2020/12/11 08:22:39;;;;;;;86.20;30.27;;;-0.10;99.90;;;;;;5021455;28;20081;-50
2020/12/11 08:25:23;;;;;;;79.70;29.17;;;-0.10;99.90;;;;;;5023208;28;20041;-46
2020/12/11 08:27:50;;;;;;;78.05;28.83;;;-0.10;99.90;;;;;;5018283;28;20052;-49
2020/12/11 08:30:17;;;;;;;78.88;28.70;;;-0.10;99.90;;;;;;5028263;28;20033;-57
2020/12/11 08:32:45;;;;;;;84.05;28.35;;;-0.10;99.90;;;;;;5023356;28;20032;-47
2020/12/11 08:35:20;;;;;;;74.38;25.30;;;-0.10;99.90;;;;;;5027937;28;20036;-49
2020/12/11 08:37:54;;;;;;;75.07;25.17;;;-0.10;99.90;;;;;;5026062;28;20427;-50
2020/12/11 08:40:20;;;;;;;73.32;25.40;;;-0.10;99.90;;;;;;5027560;28;20048;-48
2020/12/11 08:48:42;;;;;;;70.72;25.80;;;-0.10;99.90;;;;;;5023092;28;20056;-46
2020/12/11 08:51:08;;;;;;;84.45;25.05;;;-0.10;99.90;;;;;;5022139;28;20028;-50
2020/12/11 08:53:39;;;;;;;76.68;25.50;;;-0.10;99.90;;;;;;5017377;28;20638;-45
2020/12/11 08:56:09;;;;;;;84.60;27.42;;;-0.20;99.90;;;;;;5021526;28;20440;-46
2020/12/11 08:58:35;;;;;;;78.40;27.65;;;-0.10;99.90;;;;;;5016683;28;20029;-50
2020/12/11 09:01:02;;;;;;;76.85;25.48;;;-0.10;99.90;;;;;;5020272;28;20071;-51
2020/12/11 09:03:28;;;;;;;84.15;26.15;;;-0.10;99.90;;;;;;5021913;28;20029;-46
2020/12/11 09:05:53;;;;;;;67.93;23.95;;;-0.20;99.90;;;;;;5018045;28;20040;-52
2020/12/11 09:08:19;;;;;;;71.10;26.10;;;-0.10;99.90;;;;;;5016530;28;20046;-47
2020/12/11 09:10:44;;;;;;;72.18;25.67;;;-0.10;99.90;;;;;;5018679;28;20032;-49
2020/12/11 09:13:10;;;;;;;59.03;19.60;;;-0.20;99.90;;;;;;5016862;28;20049;-46
2020/12/11 09:15:35;;;;;;;68.68;25.77;;;-0.10;99.90;;;;;;5016636;28;20067;-46
2020/12/11 09:18:01;;;;;;;74.40;27.00;;;-0.10;99.90;;;;;;5016544;28;20500;-47
2020/12/11 09:20:26;;;;;;;77.88;27.75;;;-0.20;99.90;;;;;;5020916;28;20068;-46
2020/12/11 09:22:54;;;;;;;76.88;28.58;;;-0.20;99.90;;;;;;5018773;28;20116;-45
2020/12/11 09:25:19;;;;;;;67.13;23.98;;;-0.20;99.90;;;;;;5024100;28;20025;-44
2020/12/11 09:27:45;;;;;;;62.50;21.83;;;-0.20;99.90;;;;;;5022599;28;20094;-46
2020/12/11 09:35:17;;;;;;;48.55;18.17;;;-0.10;99.90;;;;;;5022318;28;20094;-46
2020/12/11 09:37:49;;;;;;;59.97;22.60;;;-0.10;99.90;;;;;;5029158;28;20032;-48
2020/12/11 09:40:18;;;;;;;53.53;21.33;;;-0.10;99.90;;;;;;5020591;28;20025;-47
2020/12/11 09:43:42;;;;;;;69.65;25.70;;;-0.20;99.90;;;;;;5019038;28;20021;-51
2020/12/11 09:45:38;;;;;;;53.03;20.40;;;-0.10;99.90;;;;;;5016924;28;20080;-50
2020/12/11 09:48:18;;;;;;;69.40;27.23;;;-0.10;99.90;;;;;;5022763;28;20029;-50
2020/12/11 09:55:40;;;;;;;59.47;22.83;;;-0.10;99.90;;;;;;5013697;28;20359;-47
2020/12/11 09:58:05;;;;;;;54.13;23.73;;;-0.10;99.90;;;;;;5021377;28;20029;-46
2020/12/11 10:00:31;;;;;;;59.53;22.48;;;-0.20;99.90;;;;;;5010147;28;20030;-47
2020/12/11 10:03:02;;;;;;;44.63;18.98;;;-0.20;99.90;;;;;;5017402;28;20424;-48
2020/12/11 10:05:28;;;;;;;64.15;24.02;;;-0.10;99.90;;;;;;5025876;28;20048;-46
2020/12/11 10:07:54;;;;;;;53.40;22.92;;;-0.10;99.90;;;;;;5017372;28;20057;-47
2020/12/11 10:10:20;;;;;;;57.15;21.23;;;-0.10;99.90;;;;;;5020897;28;20072;-50
2020/12/11 10:12:45;;;;;;;65.22;22.42;;;0.00;99.90;;;;;;5024480;28;20067;-46
2020/12/11 10:15:11;;;;;;;54.28;21.05;;;-0.10;99.90;;;;;;5022569;28;20032;-46
2020/12/11 10:17:38;;;;;;;40.30;17.60;;;-0.10;99.90;;;;;;5018760;28;20033;-49
2020/12/11 10:20:04;;;;;;;50.05;20.13;;;-0.10;99.90;;;;;;5018771;28;20160;-47
2020/12/11 10:22:29;;;;;;;54.60;21.05;;;-0.20;99.90;;;;;;5018987;28;20116;-48
2020/12/11 10:24:54;;;;;;;58.78;21.35;;;-0.20;99.90;;;;;;5016964;28;20544;-46
2020/12/11 10:27:20;;;;;;;58.38;22.25;;;-0.20;99.90;;;;;;5021624;28;20038;-46
2020/12/11 10:29:46;;;;;;;52.35;22.10;;;-0.20;99.90;;;;;;5019888;28;20040;-50
2020/12/11 10:32:11;;;;;;;52.15;21.00;;;-0.20;99.90;;;;;;5019052;28;20457;-51
2020/12/11 10:34:37;;;;;;;56.88;22.80;;;-0.10;99.90;;;;;;5024139;28;20022;-50
2020/12/11 10:37:11;;;;;;;53.58;20.88;;;-0.10;99.90;;;;;;5017926;28;20113;-49
2020/12/11 10:39:38;;;;;;;53.75;21.13;;;-0.10;99.90;;;;;;5019346;28;20034;-47
2020/12/11 10:42:04;;;;;;;63.25;24.45;;;-0.10;99.90;;;;;;5022248;28;20357;-49
2020/12/11 10:44:29;;;;;;;59.47;25.08;;;-0.10;99.90;;;;;;5015237;28;20208;-46
2020/12/11 10:46:55;;;;;;;58.40;22.70;;;-0.10;99.90;;;;;;5020508;28;20030;-50
2020/12/11 10:49:21;;;;;;;66.25;23.85;;;-0.10;99.90;;;;;;5016871;28;20025;-46
2020/12/11 10:51:50;;;;;;;51.40;20.05;;;-0.10;99.90;;;;;;5020350;28;20488;-46
2020/12/11 10:54:17;;;;;;;60.35;22.55;;;-0.10;99.90;;;;;;5018518;28;20147;-47
2020/12/11 10:56:46;;;;;;;49.13;20.23;;;-0.10;99.90;;;;;;5022481;28;20026;-47
2020/12/11 10:59:15;;;;;;;52.25;18.67;;;-0.10;99.90;;;;;;5028038;28;20044;-48
2020/12/11 11:01:41;;;;;;;51.08;20.98;;;0.00;99.90;;;;;;5027219;28;20057;-45
2020/12/11 11:04:08;;;;;;;44.78;18.60;;;0.00;99.90;;;;;;5023411;28;20042;-49
2020/12/11 11:06:41;;;;;;;61.95;21.55;;;0.10;99.90;;;;;;5029819;28;20029;-47
2020/12/11 11:11:38;;;;;;;56.15;20.48;;;0.20;99.90;;;;;;5023266;28;20021;-48
2020/12/11 11:14:16;;;;;;;51.15;19.13;;;0.20;99.90;;;;;;5024545;28;20029;-45
2020/12/11 11:22:18;;;;;;;52.60;18.67;;;0.20;99.90;;;;;;5022181;28;20039;-48
2020/12/11 11:27:41;;;;;;;52.35;19.45;;;0.30;99.90;;;;;;5022859;28;20144;-49
2020/12/11 11:30:06;;;;;;;47.80;18.50;;;0.30;99.90;;;;;;5026365;28;20163;-46
2020/12/11 11:32:32;;;;;;;46.78;17.27;;;0.30;99.90;;;;;;5024746;28;20469;-45
2020/12/11 11:34:58;;;;;;;44.13;15.90;;;0.30;99.90;;;;;;5020793;28;20083;-47
2020/12/11 11:37:27;;;;;;;53.05;19.17;;;0.40;99.90;;;;;;5019575;28;20523;-47
2020/12/11 11:39:53;;;;;;;42.28;16.65;;;0.40;99.90;;;;;;5027259;28;20428;-49
2020/12/11 11:42:18;;;;;;;50.10;17.83;;;0.40;99.90;;;;;;5023855;28;20029;-48
2020/12/11 11:47:09;;;;;;;45.47;15.35;;;0.50;99.90;;;;;;5023321;28;20070;-49
2020/12/11 11:49:54;;;;;;;42.88;15.10;;;0.50;99.90;;;;;;5018187;28;20037;-48
2020/12/11 11:52:26;;;;;;;53.72;20.75;;;0.60;99.90;;;;;;5018908;28;20057;-48
2020/12/11 11:54:52;;;;;;;49.58;18.15;;;0.70;99.90;;;;;;5023125;28;20018;-50
2020/12/11 11:57:19;;;;;;;46.65;19.63;;;0.60;99.90;;;;;;5021053;28;20527;-44
2020/12/11 11:59:44;;;;;;;59.70;21.45;;;0.70;99.90;;;;;;5019557;28;20028;-49
2020/12/11 12:02:10;;;;;;;61.88;21.08;;;0.70;99.90;;;;;;5019978;28;20037;-49
2020/12/11 12:04:35;;;;;;;50.95;17.80;;;0.70;99.90;;;;;;5018929;28;20034;-48
2020/12/11 12:07:01;;;;;;;59.28;21.02;;;0.80;99.90;;;;;;5016977;28;20032;-49
2020/12/11 12:09:26;;;;;;;61.00;21.05;;;0.80;99.90;;;;;;5021392;28;20057;-51
2020/12/11 12:11:52;;;;;;;57.90;20.98;;;0.80;99.90;;;;;;5015421;28;20038;-46
2020/12/11 12:14:17;;;;;;;69.40;23.65;;;0.90;99.90;;;;;;5017849;28;20033;-46
2020/12/11 12:16:44;;;;;;;59.15;20.88;;;0.90;99.90;;;;;;5019845;28;20033;-49
2020/12/11 12:19:15;;;;;;;65.40;21.92;;;0.80;99.90;;;;;;5016334;28;20412;-49
2020/12/11 12:29:38;;;;;;;86.63;30.00;;;0.80;99.90;;;;;;5028412;28;20079;-48
2020/12/11 12:32:11;;;;;;;67.03;26.08;;;0.80;99.90;;;;;;5024888;28;20061;-46
2020/12/11 12:37:31;;;;;;;116.55;39.83;;;0.80;99.90;;;;;;5024971;28;20061;-47
2020/12/11 12:45:11;;;;;;;86.78;29.63;;;0.80;99.90;;;;;;5024450;28;20075;-48
2020/12/11 12:47:38;;;;;;;86.07;29.60;;;0.80;99.90;;;;;;5024337;28;20072;-46
2020/12/11 12:50:05;;;;;;;70.60;25.17;;;0.80;99.90;;;;;;5020676;28;20444;-50
2020/12/11 12:52:31;;;;;;;79.13;28.30;;;0.80;99.90;;;;;;5022427;28;20037;-50
2020/12/11 12:54:57;;;;;;;82.88;28.83;;;0.90;99.90;;;;;;5028560;28;20360;-47
2020/12/11 12:57:46;;;;;;;84.43;27.15;;;0.80;99.90;;;;;;5019567;28;20026;-46
2020/12/11 13:00:25;;;;;;;79.90;27.05;;;0.80;99.90;;;;;;5022949;28;20041;-45
2020/12/11 13:05:22;;;;;;;83.28;28.83;;;0.80;99.90;;;;;;5020967;28;20021;-47
2020/12/11 13:07:48;;;;;;;84.22;27.90;;;0.80;99.90;;;;;;5024381;28;20090;-48
2020/12/11 13:10:13;;;;;;;78.93;26.17;;;0.80;99.90;;;;;;5020717;28;20029;-46
2020/12/11 13:12:41;;;;;;;81.03;25.88;;;0.80;99.90;;;;;;5018097;28;20030;-46
2020/12/11 13:15:07;;;;;;;91.18;30.65;;;0.70;99.90;;;;;;5020574;28;20030;-47
2020/12/11 13:17:32;;;;;;;90.28;29.45;;;0.80;99.90;;;;;;5018210;28;20022;-49
2020/12/11 13:19:59;;;;;;;100.20;30.48;;;0.80;99.90;;;;;;5021442;28;20071;-49